Latest Conditions
At L.F.Wade Int. Airport
Recorded at 5:55 am
Showers
Temp.: 
27°C/80°F
Humidity: 
84%
Wind: 
WSW 10KT
or 12mph
UV Index: 
0
Island Observations
 
Observations
Thursday, July 29, 2021

Observations are in local time and taken at least once an hour, or upon the start and end of specified events such as showers and thunderstorms.

Time Sky / Weather Wind Speed/Gusts Temp. R.H. Pressure
     knots (mph)  °C (°F)  %  mb / "Hg
 05:55 Few Clouds Showers WSW 10/0 (12/0) 27(80) 84 1017 / 30.04
 04:55 Partly Cloudy  SW 11/0 (13/0) 27(80) 85 1017 / 30.03
 04:13 Partly Cloudy  SW 12/0 (14/0) 26(80) 90 1017 / 30.03
 03:55 Mostly Cloudy  SW 10/0 (12/0) 26(80) 90 1017 / 30.03
 03:05 Partly Cloudy Showers WSW 9/0 (10/0) 26(79) 89 1017 / 30.03
 02:55 Partly Cloudy Showers SW 11/0 (13/0) 26(78) 88 1017 / 30.03
 01:55 Partly Cloudy Showers SW 9/0 (10/0) 26(80) 87 1017 / 30.04
 00:55 Mostly Cloudy  SW 8/0 (9/0) 27(80) 86 1018 / 30.05
 23:55 Mostly Cloudy  WSW 9/0 (10/0) 27(80) 85 1018 / 30.05
 22:55 Mostly Cloudy Showers WSW 11/0 (13/0) 27(80) 86 1018 / 30.06
 22:19 Mostly Cloudy Showers W 11/0 (13/0) 27(80) 87 1018 / 30.06
 21:55 Mostly Cloudy  WSW 11/0 (13/0) 27(81) 85 1017 / 30.04
 21:19 Mostly Cloudy Showers WSW 11/0 (13/0) 27(80) 85 1017 / 30.04
 20:55 Mostly Cloudy Showers WSW 12/0 (14/0) 27(81) 85 1017 / 30.04
 20:13 Mostly Cloudy Showers WSW 12/0 (14/0) 27(80) 85 1017 / 30.03
 19:55 Mostly Cloudy Showers WSW 13/0 (15/0) 27(81) 84 1017 / 30.03
 18:55 Mostly Cloudy  SW 13/0 (15/0) 27(81) 86 1017 / 30.03
 18:40 Mostly Cloudy Showers WSW 14/0 (16/0) 27(81) 85 1017 / 30.02
 17:55 Mostly Cloudy Showers SW 17/0 (20/0) 28(83) 79 1017 / 30.03
 16:55 Mostly Cloudy  SW 18/0 (21/0) 28(83) 78 1017 / 30.02
 15:55 Mostly Cloudy  SW 19/0 (22/0) 29(84) 76 1017 / 30.04
 14:55 Mostly Cloudy Showers SSW 18/0 (21/0) 28(83) 81 1017 / 30.04
 14:30 Mostly Cloudy Showers WSW 17/0 (20/0) 28(82) 83 1017 / 30.04
 14:12 Mostly Cloudy Showers WSW 17/0 (20/0) 28(82) 83 1017 / 30.04
 13:55 Mostly Cloudy Showers SW 18/0 (21/0) 29(84) 77 1018 / 30.05
 12:55 Mostly Cloudy Showers SW 16/0 (18/0) 29(84) 77 1018 / 30.07
 11:55 Mostly Cloudy Showers SSW 14/0 (16/0) 28(83) 85 1019 / 30.08
 11:23 Mostly Cloudy Showers WSW 8/0 (9/0) 26(79) 87 1019 / 30.08
 10:55 Mostly Cloudy Showers SW 11/0 (13/0) 28(83) 86 1018 / 30.07
 10:06 Mostly Cloudy Showers WSW 8/0 (9/0) 26(79) 87 1018 / 30.07
 09:55 Mostly Cloudy Showers WSW 12/0 (14/0) 28(82) 83 1018 / 30.07
 09:40 Mostly Cloudy Showers SW 8/0 (9/0) 26(80) 88 1018 / 30.07
 08:55 Mostly Cloudy Showers WSW 9/0 (10/0) 28(82) 83 1018 / 30.06
 07:55 Mostly Cloudy  WSW 6/0 (7/0) 26(78) 90 1018 / 30.05
 06:55 Mostly Cloudy Showers WSW 6/0 (7/0) 26(78) 90 1018 / 30.06
 05:55 Mostly Cloudy Showers SSE 2/0 (2/0) 26(78) 86 1018 / 30.06
 05:41 Mostly Cloudy Showers VRB 2/0 (2/0) 25(78) 88 1018 / 30.05
 04:55 Mostly Cloudy Showers NW 8/0 (9/0) 24(76) 93 1018 / 30.06
 04:39 Overcast Showers W 8/0 (9/0) 25(76) 94 1018 / 30.07
 04:35 Overcast Showers W 5/0 (6/0) 26(79) 90 1018 / 30.06
 04:27 Mostly Cloudy Thunderstorm W 4/0 (5/0) 26(79) 87 1018 / 30.06
 04:16 Mostly Cloudy Thunderstorm W 4/0 (5/0) 26(80) 88 1018 / 30.06
 04:08 Mostly Cloudy Thunderstorm SSW 6/0 (7/0) 26(79) 88 1018 / 30.05
 03:55 Mostly Cloudy Showers SW 8/0 (9/0) 26(79) 88 1018 / 30.05
 03:44 Mostly Cloudy Showers SW 8/0 (9/0) 26(79) 89 1018 / 30.05
 03:18 Mostly Cloudy Showers SSW 4/0 (5/0) 26(79) 89 1018 / 30.06
 03:10 Mostly Cloudy Showers SW 6/0 (7/0) 26(79) 89 1018 / 30.06
 02:55 Mostly Cloudy Showers SSW 6/0 (7/0) 26(80) 89 1018 / 30.06
 01:55 Partly Cloudy Showers SSW 5/0 (6/0) 27(80) 87 1018 / 30.07
 00:55 Partly Cloudy  WSW 6/0 (7/0) 27(80) 86 1018 / 30.07
 23:55 Partly Cloudy  WSW 10/0 (12/0) 27(80) 83 1019 / 30.09
 22:55 Mostly Cloudy  WSW 12/0 (14/0) 27(81) 84 1019 / 30.10
 21:55 Partly Cloudy  WSW 12/0 (14/0) 27(81) 83 1019 / 30.09
 20:55 Partly Cloudy  WSW 12/0 (14/0) 27(81) 84 1019 / 30.09
 19:55 Mostly Cloudy Showers WSW 12/0 (14/0) 27(81) 83 1019 / 30.08
 18:55 Partly Cloudy  WSW 11/0 (13/0) 28(83) 78 1019 / 30.08
 17:55 Mostly Cloudy  W 10/0 (12/0) 28(83) 78 1019 / 30.08
 16:55 Partly Cloudy  W 11/0 (13/0) 29(83) 75 1019 / 30.08
 15:55 Partly Cloudy  W 9/0 (10/0) 28(83) 75 1019 / 30.09
 14:55 Mostly Cloudy  W 5/0 (6/0) 28(82) 76 1019 / 30.09
 13:55 Mostly Cloudy  WNW 6/0 (7/0) 28(82) 79 1019 / 30.10
 12:55 Mostly Cloudy  W 6/0 (7/0) 28(82) 79 1019 / 30.09
 11:55 Mostly Cloudy  W 4/0 (5/0) 27(81) 77 1020 / 30.11
 10:55 Mostly Cloudy  S 3/0 (3/0) 28(82) 76 1019 / 30.09
 09:55 Mostly Cloudy  VRB 2/0 (2/0) 25(78) 91 1019 / 30.09
 08:55 Mostly Cloudy Showers SSW 5/0 (6/0) 25(78) 91 1019 / 30.09
 07:55 Mostly Cloudy Showers VRB 1/0 (1/0) 26(78) 84 1019 / 30.09
 06:55 Overcast Showers SE 6/0 (7/0) 25(77) 89 1019 / 30.08
 05:55 Mostly Cloudy Showers S 2/0 (2/0) 25(76) 86 1018 / 30.07
 05:44 Overcast Showers S 2/0 (2/0) 24(76) 88 1019 / 30.08
 05:26 Overcast Showers SSE 4/0 (5/0) 24(76) 91 1019 / 30.08
 04:58 Overcast Showers S 12/0 (14/0) 24(76) 94 1019 / 30.08
 04:55 Overcast Showers S 13/0 (15/0) 24(76) 93 1019 / 30.08
 04:41 Overcast Showers S 10/0 (12/0) 26(78) 85 1019 / 30.08
 03:55 Mostly Cloudy  SSW 5/0 (6/0) 26(78) 85 1019 / 30.08
 02:55 Mostly Cloudy  SSW 6/0 (7/0) 26(78) 84 1019 / 30.09
 01:55 Mostly Cloudy  SSW 6/0 (7/0) 26(79) 81 1019 / 30.10
 00:55 Mostly Cloudy  SSW 8/0 (9/0) 26(79) 83 1020 / 30.12
 23:55 Mostly Cloudy  SSW 10/0 (12/0) 26(78) 85 1020 / 30.12
 22:55 Mostly Cloudy  SW 7/0 (8/0) 26(78) 86 1020 / 30.12
 21:55 Mostly Cloudy  WSW 5/0 (6/0) 26(79) 84 1020 / 30.11
 20:55 Mostly Cloudy  SW 10/0 (12/0) 26(79) 85 1020 / 30.11
 19:55 Mostly Cloudy  SSW 14/0 (16/0) 27(80) 84 1020 / 30.11
 19:47 Mostly Cloudy  SSW 14/0 (16/0) 27(80) 84 1020 / 30.11
 19:36 Mostly Cloudy  SSW 14/0 (16/0) 27(80) 84 1020 / 30.11
 19:10 Mostly Cloudy  SSW 16/0 (18/0) 27(81) 78 1020 / 30.11
 18:55 Mostly Cloudy  SSW 15/0 (17/0) 27(81) 77 1020 / 30.11
 17:55 Mostly Cloudy  S 12/0 (14/0) 27(80) 82 1020 / 30.11
 16:55 Mostly Cloudy  S 14/0 (16/0) 26(78) 84 1019 / 30.10
 15:55 Mostly Cloudy  S 17/0 (20/0) 26(78) 82 1020 / 30.11
 14:55 Mostly Cloudy  S 17/0 (20/0) 26(78) 84 1020 / 30.12
 13:55 Overcast  S 15/0 (17/0) 26(78) 85 1020 / 30.12
 13:27 Overcast  SSW 16/0 (18/0) 25(78) 85 1020 / 30.13
 13:09 Overcast  SSW 14/0 (16/0) 25(77) 89 1021 / 30.14
 12:55 Overcast Rain SSW 12/0 (14/0) 24(75) 94 1021 / 30.15
 12:42 Overcast  SW 12/0 (14/0) 26(78) 89 1021 / 30.15
 12:08 Overcast Rain SSW 12/0 (14/0) 24(76) 93 1021 / 30.15
 12:06 Overcast Showers SSE 5/0 (6/0) 24(76) 93 1021 / 30.15
 11:55 Overcast Showers Calm 24(76) 93 1021 / 30.16
 11:37 Overcast Showers VRB 2/0 (2/0) 24(76) 94 1021 / 30.16
Island AWOS